createdAt,value
2019-03-30T00:00:43.861Z,7.21
2019-03-30T00:01:43.857Z,7.21
2019-03-30T00:02:43.850Z,7.17
2019-03-30T00:03:43.849Z,7.16
2019-03-30T00:04:43.828Z,7.17
2019-03-30T00:05:43.812Z,7.09
2019-03-30T00:06:43.810Z,7.10
2019-03-30T00:07:43.791Z,7.09
2019-03-30T00:08:43.821Z,7.09
2019-03-30T00:09:43.769Z,7.03
2019-03-30T00:10:43.762Z,7.06
2019-03-30T00:11:43.742Z,7.07
2019-03-30T00:12:43.744Z,7.09
2019-03-30T00:13:43.750Z,7.07
2019-03-30T00:14:43.717Z,7.06
2019-03-30T00:15:43.724Z,7.02
2019-03-30T00:16:43.696Z,7.02
2019-03-30T00:17:43.686Z,6.95
2019-03-30T00:18:43.707Z,7.02
2019-03-30T00:19:43.690Z,7.03
2019-03-30T00:20:43.646Z,6.97
2019-03-30T00:21:43.639Z,6.94
2019-03-30T00:22:43.642Z,6.95
2019-03-30T00:23:43.626Z,6.87
2019-03-30T00:24:43.595Z,6.85
2019-03-30T00:25:43.607Z,6.88
2019-03-30T00:26:43.572Z,6.70
2019-03-30T00:27:43.569Z,6.66
2019-03-30T00:28:43.557Z,6.67
2019-03-30T00:29:43.567Z,6.67
2019-03-30T00:30:43.534Z,6.64
2019-03-30T00:31:43.519Z,6.70
2019-03-30T00:32:43.526Z,6.67
2019-03-30T00:33:43.506Z,6.64
2019-03-30T00:34:43.529Z,6.67
2019-03-30T00:35:43.480Z,6.67
2019-03-30T00:36:43.492Z,6.58
2019-03-30T00:37:43.459Z,6.52
2019-03-30T00:38:43.445Z,6.52
2019-03-30T00:39:43.453Z,6.52
2019-03-30T00:40:43.436Z,6.59
2019-03-30T00:41:43.425Z,6.54
2019-03-30T00:42:43.432Z,6.52
2019-03-30T00:43:43.386Z,6.52
2019-03-30T00:44:43.416Z,6.58
2019-03-30T00:45:43.371Z,6.55
2019-03-30T00:46:43.362Z,6.55
2019-03-30T00:47:43.366Z,6.58
2019-03-30T00:48:43.336Z,6.59
2019-03-30T00:49:49.257Z,6.55
2019-03-30T00:50:44.330Z,6.58
2019-03-30T00:51:43.321Z,6.48
2019-03-30T00:52:43.291Z,6.52
2019-03-30T00:53:43.283Z,6.52
2019-03-30T00:54:43.288Z,6.54
2019-03-30T00:55:43.258Z,6.58
2019-03-30T00:56:43.244Z,6.59
2019-03-30T00:57:43.251Z,6.55
2019-03-30T00:58:43.226Z,6.56
2019-03-30T00:59:43.264Z,6.55
2019-03-30T01:00:43.204Z,6.48
2019-03-30T01:01:43.201Z,6.51
2019-03-30T01:02:43.262Z,6.40
2019-03-30T01:03:43.208Z,6.41
2019-03-30T01:04:43.181Z,6.36
2019-03-30T01:05:43.178Z,6.44
2019-03-30T01:06:43.135Z,6.46
2019-03-30T01:07:43.147Z,6.41
2019-03-30T01:08:43.137Z,6.36
2019-03-30T01:09:43.127Z,6.41
2019-03-30T01:10:43.118Z,6.43
2019-03-30T01:11:43.090Z,6.41
2019-03-30T01:12:43.084Z,6.37
2019-03-30T01:13:43.067Z,6.34
2019-03-30T01:14:43.057Z,6.31
2019-03-30T01:15:43.059Z,6.17
2019-03-30T01:16:43.040Z,6.19
2019-03-30T01:17:43.039Z,6.17
2019-03-30T01:18:43.010Z,6.18
2019-03-30T01:19:43.006Z,6.18
2019-03-30T01:20:43.007Z,6.11
2019-03-30T01:21:42.989Z,6.06
2019-03-30T01:22:42.971Z,6.08
2019-03-30T01:23:42.967Z,5.99
2019-03-30T01:24:42.940Z,6.03
2019-03-30T01:25:42.937Z,6.04
2019-03-30T01:26:42.939Z,6.03
2019-03-30T01:27:42.919Z,5.99
2019-03-30T01:28:42.900Z,5.90
2019-03-30T01:29:42.907Z,5.94
2019-03-30T01:30:42.880Z,5.91
2019-03-30T01:31:42.886Z,5.93
2019-03-30T01:32:42.867Z,5.94
2019-03-30T01:33:42.841Z,5.93
2019-03-30T01:34:42.833Z,5.93
2019-03-30T01:35:42.829Z,5.93
2019-03-30T01:36:42.812Z,5.99
2019-03-30T01:37:42.815Z,5.93
2019-03-30T01:38:42.789Z,6.03
2019-03-30T01:39:42.776Z,6.03
2019-03-30T01:40:42.772Z,5.96
2019-03-30T01:41:42.770Z,6.00
2019-03-30T01:42:42.770Z,6.06
2019-03-30T01:43:42.731Z,5.91
2019-03-30T01:44:42.722Z,5.91
2019-03-30T01:45:42.711Z,5.90
2019-03-30T01:46:42.719Z,5.89
2019-03-30T01:47:42.690Z,5.85
2019-03-30T01:48:42.677Z,5.83
2019-03-30T01:49:42.668Z,5.83
2019-03-30T01:50:42.662Z,5.91
2019-03-30T01:51:42.683Z,5.81
2019-03-30T01:52:42.661Z,5.86
2019-03-30T01:53:42.632Z,5.89
2019-03-30T01:54:42.640Z,5.89
2019-03-30T01:55:42.598Z,5.81
2019-03-30T01:56:42.587Z,5.79
2019-03-30T01:57:42.622Z,5.81
2019-03-30T01:58:42.570Z,5.78
2019-03-30T01:59:42.555Z,5.75
2019-03-30T02:00:42.555Z,5.72
2019-03-30T02:01:42.533Z,5.75
2019-03-30T02:02:42.566Z,5.82
2019-03-30T02:03:42.514Z,5.74
2019-03-30T02:04:42.498Z,5.79
2019-03-30T02:05:42.512Z,5.71
2019-03-30T02:06:42.489Z,5.78
2019-03-30T02:07:42.484Z,5.76
2019-03-30T02:08:42.470Z,5.68
2019-03-30T02:09:42.444Z,5.71
2019-03-30T02:10:42.433Z,5.65
2019-03-30T02:11:42.423Z,5.64
2019-03-30T02:12:42.434Z,5.64
2019-03-30T02:13:42.399Z,5.63
2019-03-30T02:14:42.387Z,5.61
2019-03-30T02:15:42.397Z,5.56
2019-03-30T02:16:42.366Z,5.53
2019-03-30T02:17:42.378Z,5.58
2019-03-30T02:18:42.348Z,5.51
2019-03-30T02:19:42.332Z,5.48
2019-03-30T02:20:42.324Z,5.46
2019-03-30T02:21:42.311Z,5.40
2019-03-30T02:22:42.302Z,5.45
2019-03-30T02:23:42.332Z,5.51
2019-03-30T02:24:42.273Z,5.43
2019-03-30T02:25:42.266Z,5.42
2019-03-30T02:26:42.252Z,5.40
2019-03-30T02:27:42.259Z,5.42
2019-03-30T02:28:42.254Z,5.45
2019-03-30T02:29:42.223Z,5.42
2019-03-30T02:30:42.214Z,5.38
2019-03-30T02:31:42.201Z,5.42
2019-03-30T02:32:42.185Z,5.42
2019-03-30T02:33:42.191Z,5.46
2019-03-30T02:34:42.163Z,5.33
2019-03-30T02:35:42.154Z,5.40
2019-03-30T02:36:42.145Z,5.38
2019-03-30T02:37:42.133Z,5.33
2019-03-30T02:38:42.134Z,5.36
2019-03-30T02:39:42.117Z,5.31
2019-03-30T02:40:42.106Z,5.38
2019-03-30T02:41:42.087Z,5.39
2019-03-30T02:42:42.081Z,5.33
2019-03-30T02:43:42.195Z,5.35
2019-03-30T02:44:42.054Z,5.33
2019-03-30T02:45:42.047Z,5.35
2019-03-30T02:46:42.032Z,5.30
2019-03-30T02:47:42.041Z,5.20
2019-03-30T02:48:42.009Z,5.18
2019-03-30T02:49:42.079Z,5.20
2019-03-30T02:50:49.763Z,5.15
2019-03-30T02:51:42.979Z,5.17
2019-03-30T02:52:41.971Z,5.17
2019-03-30T02:53:41.959Z,5.06
2019-03-30T02:54:41.989Z,5.03
2019-03-30T02:55:41.946Z,5.04
2019-03-30T02:56:41.928Z,5.02
2019-03-30T02:57:41.909Z,5.02
2019-03-30T02:58:41.915Z,4.99
2019-03-30T02:59:41.907Z,5.07
2019-03-30T03:00:41.878Z,5.03
2019-03-30T03:01:41.873Z,5.02
2019-03-30T03:02:41.876Z,5.03
2019-03-30T03:03:41.843Z,5.03
2019-03-30T03:04:41.853Z,5.02
2019-03-30T03:05:41.820Z,5.09
2019-03-30T03:06:41.823Z,5.12
2019-03-30T03:07:41.813Z,5.06
2019-03-30T03:08:41.804Z,5.13
2019-03-30T03:09:41.795Z,5.15
2019-03-30T03:10:41.771Z,5.07
2019-03-30T03:11:41.764Z,5.09
2019-03-30T03:12:41.755Z,5.07
2019-03-30T03:13:41.732Z,5.06
2019-03-30T03:14:41.752Z,5.02
2019-03-30T03:15:41.747Z,5.07
2019-03-30T03:16:41.709Z,5.02
2019-03-30T03:17:41.718Z,5.07
2019-03-30T03:18:41.681Z,4.97
2019-03-30T03:19:41.690Z,4.99
2019-03-30T03:20:41.676Z,5.03
2019-03-30T03:21:41.664Z,5.00
2019-03-30T03:22:41.634Z,4.89
2019-03-30T03:23:41.628Z,4.97
2019-03-30T03:24:41.666Z,4.82
2019-03-30T03:25:41.610Z,4.88
2019-03-30T03:26:41.597Z,4.86
2019-03-30T03:27:41.585Z,4.85
2019-03-30T03:28:41.577Z,4.75
2019-03-30T03:29:43.968Z,4.75
2019-03-30T03:30:41.578Z,4.77
2019-03-30T03:31:41.541Z,4.66
2019-03-30T03:32:41.525Z,4.67
2019-03-30T03:33:41.530Z,4.63
2019-03-30T03:34:41.521Z,4.62
2019-03-30T03:35:41.531Z,4.58
2019-03-30T03:36:41.505Z,4.62
2019-03-30T03:37:45.153Z,4.55
2019-03-30T03:38:41.462Z,4.52
2019-03-30T03:39:41.460Z,4.50
2019-03-30T03:40:41.470Z,4.60
2019-03-30T03:41:41.420Z,4.55
2019-03-30T03:42:41.431Z,4.51
2019-03-30T03:43:41.419Z,4.55
2019-03-30T03:44:41.393Z,4.50
2019-03-30T03:45:41.431Z,4.47
2019-03-30T03:46:41.374Z,4.54
2019-03-30T03:47:41.371Z,4.50
2019-03-30T03:48:41.350Z,4.50
2019-03-30T03:49:41.336Z,4.44
2019-03-30T03:50:41.341Z,4.52
2019-03-30T03:51:41.316Z,4.45
2019-03-30T03:52:41.320Z,4.55
2019-03-30T03:53:41.298Z,4.59
2019-03-30T03:54:41.279Z,4.44
2019-03-30T03:55:41.353Z,4.50
2019-03-30T03:56:41.274Z,4.51
2019-03-30T03:57:41.254Z,4.47
2019-03-30T03:58:41.243Z,4.42
2019-03-30T03:59:41.226Z,4.47
2019-03-30T04:00:41.254Z,4.40
2019-03-30T04:01:41.215Z,4.41
2019-03-30T04:02:41.303Z,4.44
2019-03-30T04:03:41.191Z,4.41
2019-03-30T04:04:41.184Z,4.42
2019-03-30T04:05:41.167Z,4.44
2019-03-30T04:06:41.165Z,4.40
2019-03-30T04:07:41.148Z,4.34
2019-03-30T04:08:41.142Z,4.37
2019-03-30T04:09:41.117Z,4.44
2019-03-30T04:10:41.103Z,4.27
2019-03-30T04:11:41.116Z,4.32
2019-03-30T04:12:41.081Z,4.33
2019-03-30T04:13:41.070Z,4.27
2019-03-30T04:14:41.063Z,4.30
2019-03-30T04:15:41.047Z,4.29
2019-03-30T04:16:41.057Z,4.34
2019-03-30T04:17:41.041Z,4.33
2019-03-30T04:18:41.035Z,4.41
2019-03-30T04:19:41.001Z,4.26
2019-03-30T04:20:40.987Z,4.27
2019-03-30T04:21:44.229Z,4.24
2019-03-30T04:22:40.975Z,4.22
2019-03-30T04:23:40.988Z,4.16
2019-03-30T04:24:40.943Z,4.16
2019-03-30T04:25:40.969Z,4.11
2019-03-30T04:26:40.945Z,4.09
2019-03-30T04:27:40.927Z,4.14
2019-03-30T04:28:40.922Z,4.11
2019-03-30T04:29:40.900Z,4.14
2019-03-30T04:30:40.902Z,4.11
2019-03-30T04:31:40.931Z,4.06
2019-03-30T04:32:40.863Z,4.09
2019-03-30T04:33:40.864Z,4.04
2019-03-30T04:34:40.846Z,4.08
2019-03-30T04:35:40.832Z,3.91
2019-03-30T04:36:40.849Z,3.97
2019-03-30T04:37:40.836Z,4.06
2019-03-30T04:38:40.804Z,3.97
2019-03-30T04:39:40.852Z,3.98
2019-03-30T04:40:40.779Z,4.04
2019-03-30T04:41:40.784Z,4.05
2019-03-30T04:42:40.787Z,3.90
2019-03-30T04:43:40.759Z,3.93
2019-03-30T04:44:40.744Z,4.09
2019-03-30T04:45:40.730Z,4.02
2019-03-30T04:46:40.712Z,3.98
2019-03-30T04:47:40.728Z,4.06
2019-03-30T04:48:40.690Z,3.98
2019-03-30T04:49:40.697Z,4.08
2019-03-30T04:50:40.672Z,4.09
2019-03-30T04:51:40.661Z,4.05
2019-03-30T04:52:40.770Z,4.02
2019-03-30T04:53:40.638Z,3.96
2019-03-30T04:54:40.636Z,3.96
2019-03-30T04:55:40.623Z,4.00
2019-03-30T04:56:40.621Z,4.04
2019-03-30T04:57:40.637Z,4.05
2019-03-30T04:58:40.581Z,4.02
2019-03-30T04:59:40.587Z,4.04
2019-03-30T05:00:40.564Z,3.98
2019-03-30T05:01:40.547Z,4.05
2019-03-30T05:02:40.563Z,4.04
2019-03-30T05:03:40.533Z,3.91
2019-03-30T05:04:40.524Z,4.02
2019-03-30T05:05:43.016Z,3.97
2019-03-30T05:06:40.502Z,3.94
2019-03-30T05:07:40.525Z,3.96
2019-03-30T05:08:40.476Z,4.00
2019-03-30T05:09:40.473Z,3.96
2019-03-30T05:10:40.457Z,3.96
2019-03-30T05:11:40.444Z,3.94
2019-03-30T05:12:40.432Z,3.91
2019-03-30T05:13:40.441Z,3.88
2019-03-30T05:14:40.414Z,3.88
2019-03-30T05:15:40.401Z,3.93
2019-03-30T05:16:40.389Z,3.87
2019-03-30T05:17:47.587Z,3.83
2019-03-30T05:18:41.388Z,3.87
2019-03-30T05:19:40.362Z,3.91
2019-03-30T05:20:40.346Z,3.83
2019-03-30T05:21:40.332Z,3.83
2019-03-30T05:22:40.327Z,3.80
2019-03-30T05:23:40.331Z,3.79
2019-03-30T05:24:40.305Z,3.83
2019-03-30T05:25:40.294Z,3.86
2019-03-30T05:26:40.280Z,3.86
2019-03-30T05:27:40.271Z,3.86
2019-03-30T05:28:40.280Z,3.86
2019-03-30T05:29:40.245Z,3.84
2019-03-30T05:30:40.238Z,3.94
2019-03-30T05:31:40.233Z,3.88
2019-03-30T05:32:41.895Z,3.98
2019-03-30T05:33:40.228Z,3.97
2019-03-30T05:34:40.220Z,4.00
2019-03-30T05:35:40.203Z,4.00
2019-03-30T05:36:40.170Z,3.93
2019-03-30T05:37:40.163Z,3.98
2019-03-30T05:38:40.173Z,3.96
2019-03-30T05:39:40.141Z,3.94
2019-03-30T05:40:40.136Z,3.98
2019-03-30T05:41:40.116Z,3.90
2019-03-30T05:42:40.110Z,3.98
2019-03-30T05:43:40.120Z,3.94
2019-03-30T05:44:40.090Z,4.04
2019-03-30T05:45:40.106Z,4.11
2019-03-30T05:46:40.072Z,4.06
2019-03-30T05:47:40.056Z,4.15
2019-03-30T05:48:40.086Z,4.12
2019-03-30T05:49:40.039Z,4.12
2019-03-30T05:50:40.023Z,4.14
2019-03-30T05:51:40.052Z,4.18
2019-03-30T05:52:40.010Z,4.27
2019-03-30T05:53:39.988Z,4.24
2019-03-30T05:54:40.016Z,4.30
2019-03-30T05:55:39.977Z,4.34
2019-03-30T05:56:39.957Z,4.37
2019-03-30T05:57:39.951Z,4.45
2019-03-30T05:58:39.961Z,4.45
2019-03-30T05:59:39.954Z,4.50
2019-03-30T06:00:39.954Z,4.52
2019-03-30T06:01:39.918Z,4.62
2019-03-30T06:02:39.889Z,4.60
2019-03-30T06:03:39.903Z,4.72
2019-03-30T06:04:39.942Z,4.70
2019-03-30T06:05:39.864Z,4.80
2019-03-30T06:06:39.852Z,4.78
2019-03-30T06:07:39.854Z,4.82
2019-03-30T06:08:39.821Z,4.91
2019-03-30T06:09:39.842Z,5.02
2019-03-30T06:10:39.801Z,4.99
2019-03-30T06:11:39.787Z,4.97
2019-03-30T06:12:39.790Z,5.12
2019-03-30T06:13:39.767Z,5.12
2019-03-30T06:14:39.806Z,5.17
2019-03-30T06:15:39.758Z,5.25
2019-03-30T06:16:39.734Z,5.38
2019-03-30T06:17:39.740Z,5.30
2019-03-30T06:18:39.725Z,5.39
2019-03-30T06:19:39.814Z,5.45
2019-03-30T06:20:39.733Z,5.53
2019-03-30T06:21:39.693Z,5.60
2019-03-30T06:22:40.787Z,5.64
2019-03-30T06:23:39.661Z,5.71
2019-03-30T06:24:39.642Z,5.72
2019-03-30T06:25:39.675Z,5.75
2019-03-30T06:26:39.622Z,5.85
2019-03-30T06:27:39.631Z,5.90
2019-03-30T06:28:39.623Z,5.97
2019-03-30T06:29:39.591Z,6.03
2019-03-30T06:30:39.596Z,6.15
2019-03-30T06:31:39.622Z,6.18
2019-03-30T06:32:39.556Z,6.25
2019-03-30T06:33:39.604Z,6.37
2019-03-30T06:34:39.541Z,6.41
2019-03-30T06:35:39.550Z,6.48
2019-03-30T06:36:39.534Z,6.48
2019-03-30T06:37:39.501Z,6.70
2019-03-30T06:38:39.511Z,6.64
2019-03-30T06:39:39.481Z,6.76
2019-03-30T06:40:39.531Z,6.85
2019-03-30T06:41:39.465Z,6.99
2019-03-30T06:42:39.459Z,7.06
2019-03-30T06:43:39.436Z,7.15
2019-03-30T06:44:39.429Z,7.21
2019-03-30T06:45:39.455Z,7.35
2019-03-30T06:46:39.774Z,7.40
2019-03-30T06:47:39.418Z,7.46
2019-03-30T06:48:39.402Z,7.68
2019-03-30T06:49:39.401Z,7.72
2019-03-30T06:50:39.363Z,7.92
2019-03-30T06:51:39.447Z,7.98
2019-03-30T06:52:42.691Z,8.01
2019-03-30T06:53:40.356Z,8.00
2019-03-30T06:54:39.320Z,8.15
2019-03-30T06:55:39.328Z,8.16
2019-03-30T06:56:39.324Z,8.33
2019-03-30T06:57:39.282Z,8.41
2019-03-30T06:58:39.276Z,8.55
2019-03-30T06:59:39.274Z,8.56
2019-03-30T07:00:39.285Z,8.63
2019-03-30T07:01:39.254Z,8.70
2019-03-30T07:02:39.235Z,8.74
2019-03-30T07:03:39.232Z,8.86
2019-03-30T07:04:39.207Z,8.91
2019-03-30T07:05:39.199Z,9.02
2019-03-30T07:06:39.216Z,9.08
2019-03-30T07:07:39.184Z,9.20
2019-03-30T07:08:39.188Z,9.24
2019-03-30T07:09:39.149Z,9.35
2019-03-30T07:10:39.143Z,9.40
2019-03-30T07:11:39.203Z,9.50
2019-03-30T07:12:39.116Z,9.57
2019-03-30T07:13:39.112Z,9.66
2019-03-30T07:14:39.096Z,9.61
2019-03-30T07:15:39.081Z,9.66
2019-03-30T07:16:39.093Z,9.79
2019-03-30T07:17:39.092Z,9.76
2019-03-30T07:18:39.057Z,9.78
2019-03-30T07:19:39.041Z,9.90
2019-03-30T07:20:39.031Z,9.94
2019-03-30T07:21:39.050Z,10.11
2019-03-30T07:22:39.030Z,10.14
2019-03-30T07:23:39.003Z,10.27
2019-03-30T07:24:39.039Z,10.34
2019-03-30T07:25:38.980Z,10.48
2019-03-30T07:26:38.963Z,10.56
2019-03-30T07:27:38.969Z,10.67
2019-03-30T07:28:38.949Z,10.76
2019-03-30T07:29:38.938Z,10.94
2019-03-30T07:30:38.927Z,11.02
2019-03-30T07:31:38.933Z,11.19
2019-03-30T07:32:38.972Z,11.29
2019-03-30T07:33:38.881Z,11.24
2019-03-30T07:34:41.561Z,11.22
2019-03-30T07:35:38.869Z,11.29
2019-03-30T07:36:38.857Z,11.29
2019-03-30T07:37:38.842Z,11.25
2019-03-30T07:38:38.874Z,11.42
2019-03-30T07:39:38.817Z,11.52
2019-03-30T07:40:38.812Z,11.58
2019-03-30T07:41:38.795Z,11.72
2019-03-30T07:42:38.892Z,11.75
2019-03-30T07:43:38.796Z,11.88
2019-03-30T07:44:38.767Z,12.01
2019-03-30T07:45:38.775Z,12.10
2019-03-30T07:46:38.746Z,12.17
2019-03-30T07:47:38.746Z,12.24
2019-03-30T07:48:38.733Z,12.38
2019-03-30T07:49:38.713Z,12.45
2019-03-30T07:50:38.705Z,12.45
2019-03-30T07:51:38.700Z,12.49
2019-03-30T07:52:38.676Z,12.42
2019-03-30T07:53:44.784Z,12.49
2019-03-30T07:54:39.654Z,12.46
2019-03-30T07:55:38.645Z,12.52
2019-03-30T07:56:38.642Z,12.57
2019-03-30T07:57:38.642Z,12.70
2019-03-30T07:58:38.629Z,12.68
2019-03-30T07:59:38.603Z,12.74
2019-03-30T08:00:38.601Z,12.86
2019-03-30T08:01:38.581Z,12.86
2019-03-30T08:02:38.580Z,13.03
2019-03-30T08:03:38.574Z,13.14
2019-03-30T08:04:38.543Z,13.28
2019-03-30T08:05:38.535Z,13.33
2019-03-30T08:06:38.521Z,13.39
2019-03-30T08:07:38.507Z,13.41
2019-03-30T08:08:38.533Z,13.44
2019-03-30T08:09:38.482Z,13.44
2019-03-30T08:10:38.490Z,13.49
2019-03-30T08:11:38.459Z,13.64
2019-03-30T08:12:38.459Z,13.66
2019-03-30T08:13:38.437Z,13.62
2019-03-30T08:14:38.461Z,13.81
2019-03-30T08:15:38.422Z,13.79
2019-03-30T08:16:38.402Z,13.89
2019-03-30T08:17:38.395Z,14.04
2019-03-30T08:18:38.382Z,14.14
2019-03-30T08:19:38.385Z,14.17
2019-03-30T08:20:38.359Z,14.25
2019-03-30T08:21:38.353Z,14.21
2019-03-30T08:22:38.357Z,14.27
2019-03-30T08:23:40.725Z,14.28
2019-03-30T08:24:38.346Z,14.29
2019-03-30T08:25:38.305Z,14.27
2019-03-30T08:26:38.297Z,14.43
2019-03-30T08:27:38.295Z,14.50
2019-03-30T08:28:38.284Z,14.50
2019-03-30T08:29:38.306Z,14.57
2019-03-30T08:30:38.251Z,14.65
2019-03-30T08:31:38.254Z,14.60
2019-03-30T08:32:38.232Z,14.77
2019-03-30T08:33:38.227Z,14.83
2019-03-30T08:34:38.244Z,14.96
2019-03-30T08:35:38.241Z,15.17
2019-03-30T08:36:38.195Z,15.31
2019-03-30T08:37:38.174Z,15.32
2019-03-30T08:38:38.193Z,15.44
2019-03-30T08:39:38.160Z,15.49
2019-03-30T08:40:38.475Z,15.59
2019-03-30T08:41:38.134Z,15.78
2019-03-30T08:42:38.136Z,15.82
2019-03-30T08:43:38.112Z,15.75
2019-03-30T08:44:38.100Z,15.97
2019-03-30T08:45:38.116Z,15.96
2019-03-30T08:46:38.087Z,16.07
2019-03-30T08:47:38.077Z,16.09
2019-03-30T08:48:38.099Z,16.11
2019-03-30T08:49:38.062Z,16.12
2019-03-30T08:50:38.070Z,16.04
2019-03-30T08:51:38.021Z,16.09
2019-03-30T08:52:38.016Z,16.09
2019-03-30T08:53:38.012Z,16.00
2019-03-30T08:54:38.003Z,16.02
2019-03-30T08:55:38.007Z,16.11
2019-03-30T08:56:37.971Z,16.20
2019-03-30T08:57:37.969Z,16.28
2019-03-30T08:58:37.945Z,16.35
2019-03-30T08:59:37.932Z,16.42
2019-03-30T09:00:37.938Z,16.50
2019-03-30T09:01:37.937Z,16.41
2019-03-30T09:02:37.966Z,16.50
2019-03-30T09:03:37.887Z,16.60
2019-03-30T09:04:37.872Z,16.68
2019-03-30T09:05:37.906Z,16.73
2019-03-30T09:06:37.854Z,16.79
2019-03-30T09:07:37.884Z,16.85
2019-03-30T09:08:37.841Z,16.86
2019-03-30T09:09:37.837Z,16.86
2019-03-30T09:10:37.824Z,16.83
2019-03-30T09:11:37.812Z,16.85
2019-03-30T09:12:37.786Z,16.88
2019-03-30T09:13:37.802Z,16.91
2019-03-30T09:14:37.767Z,16.85
2019-03-30T09:15:37.836Z,16.76
2019-03-30T09:16:37.758Z,16.85
2019-03-30T09:17:37.762Z,16.89
2019-03-30T09:18:37.738Z,16.89
2019-03-30T09:19:37.719Z,17.00
2019-03-30T09:20:37.730Z,17.06
2019-03-30T09:21:37.692Z,17.00
2019-03-30T09:22:37.678Z,17.12
2019-03-30T09:23:37.666Z,17.08
2019-03-30T09:24:37.653Z,17.14
2019-03-30T09:25:37.680Z,17.18
2019-03-30T09:26:37.646Z,17.30
2019-03-30T09:27:37.623Z,17.36
2019-03-30T09:28:37.623Z,17.38
2019-03-30T09:29:37.626Z,17.55
2019-03-30T09:30:37.587Z,17.68
2019-03-30T09:31:37.598Z,17.72
2019-03-30T09:32:37.586Z,17.84
2019-03-30T09:33:37.556Z,17.82
2019-03-30T09:34:37.547Z,17.89
2019-03-30T09:35:37.531Z,17.86
2019-03-30T09:36:37.690Z,17.87
2019-03-30T09:37:37.509Z,17.84
2019-03-30T09:38:37.505Z,17.89
2019-03-30T09:39:37.487Z,17.97
2019-03-30T09:40:37.476Z,17.82
2019-03-30T09:41:37.484Z,17.96
2019-03-30T09:42:37.457Z,17.84
2019-03-30T09:43:37.836Z,18.02
2019-03-30T09:44:37.436Z,18.07
2019-03-30T09:45:37.423Z,18.03
2019-03-30T09:46:37.425Z,18.00
2019-03-30T09:47:37.402Z,17.99
2019-03-30T09:48:37.387Z,18.17
2019-03-30T09:49:37.380Z,18.25
2019-03-30T09:50:37.370Z,18.29
2019-03-30T09:51:37.372Z,18.37
2019-03-30T09:52:37.371Z,18.45
2019-03-30T09:53:37.349Z,18.45
2019-03-30T09:54:37.349Z,18.48
2019-03-30T09:55:37.315Z,18.51
2019-03-30T09:56:37.304Z,18.65
2019-03-30T09:57:37.320Z,18.73
2019-03-30T09:58:37.285Z,18.63
2019-03-30T09:59:37.272Z,18.69
2019-03-30T10:00:37.275Z,18.72
2019-03-30T10:01:37.256Z,18.78
2019-03-30T10:02:37.269Z,18.60
2019-03-30T10:03:37.239Z,18.78
2019-03-30T10:04:37.230Z,18.92
2019-03-30T10:05:37.201Z,19.02
2019-03-30T10:06:37.194Z,18.94
2019-03-30T10:07:37.207Z,18.84
2019-03-30T10:08:37.183Z,18.88
2019-03-30T10:09:37.220Z,18.90
2019-03-30T10:10:37.150Z,18.87
2019-03-30T10:11:37.139Z,18.92
2019-03-30T10:12:37.160Z,18.99
2019-03-30T10:13:37.132Z,18.98
2019-03-30T10:14:37.102Z,19.08
2019-03-30T10:15:37.096Z,19.13
2019-03-30T10:16:37.083Z,19.19
2019-03-30T10:17:37.069Z,19.22
2019-03-30T10:18:37.081Z,19.16
2019-03-30T10:19:37.067Z,19.28
2019-03-30T10:20:37.040Z,19.25
2019-03-30T10:21:37.040Z,19.29
2019-03-30T10:22:37.048Z,19.36
2019-03-30T10:23:37.009Z,19.29
2019-03-30T10:24:38.290Z,19.39
2019-03-30T10:25:36.995Z,19.55
2019-03-30T10:26:36.979Z,19.51
2019-03-30T10:27:36.988Z,19.47
2019-03-30T10:28:36.966Z,19.47
2019-03-30T10:29:36.942Z,19.54
2019-03-30T10:30:36.935Z,19.54
2019-03-30T10:31:36.922Z,19.54
2019-03-30T10:32:36.904Z,19.63
2019-03-30T10:33:36.920Z,19.61
2019-03-30T10:34:39.489Z,19.56
2019-03-30T10:35:36.874Z,19.46
2019-03-30T10:36:36.864Z,19.48
2019-03-30T10:37:36.854Z,19.54
2019-03-30T10:38:36.862Z,19.61
2019-03-30T10:39:36.836Z,19.66
2019-03-30T10:40:36.828Z,19.66
2019-03-30T10:41:36.813Z,19.80
2019-03-30T10:42:36.798Z,19.94
2019-03-30T10:43:36.803Z,19.88
2019-03-30T10:44:36.779Z,19.95
2019-03-30T10:45:36.769Z,19.95
2019-03-30T10:46:36.754Z,19.91
2019-03-30T10:47:36.746Z,19.83
2019-03-30T10:48:36.753Z,19.84
2019-03-30T10:49:36.743Z,19.83
2019-03-30T10:50:36.715Z,19.94
2019-03-30T10:51:36.699Z,19.84
2019-03-30T10:52:36.698Z,20.08
2019-03-30T10:53:36.701Z,20.24
2019-03-30T10:54:36.672Z,20.26
2019-03-30T10:55:36.664Z,20.28
2019-03-30T10:56:36.647Z,20.23
2019-03-30T10:57:36.638Z,20.24
2019-03-30T10:58:36.643Z,20.38
2019-03-30T10:59:36.614Z,20.59
2019-03-30T11:00:36.609Z,20.61
2019-03-30T11:01:36.589Z,20.58
2019-03-30T11:02:36.611Z,20.61
2019-03-30T11:03:36.568Z,20.57
2019-03-30T11:04:37.749Z,20.55
2019-03-30T11:05:36.555Z,20.57
2019-03-30T11:06:36.598Z,20.57
2019-03-30T11:07:36.544Z,20.58
2019-03-30T11:08:36.523Z,20.59
2019-03-30T11:09:36.536Z,20.79
2019-03-30T11:10:36.501Z,20.80
2019-03-30T11:11:36.478Z,20.94
2019-03-30T11:12:36.482Z,21.03
2019-03-30T11:13:36.468Z,21.12
2019-03-30T11:14:36.462Z,21.24
2019-03-30T11:15:36.441Z,21.35
2019-03-30T11:16:36.420Z,21.49
2019-03-30T11:17:36.415Z,21.49
2019-03-30T11:18:36.404Z,21.40
2019-03-30T11:19:36.413Z,21.29
2019-03-30T11:20:36.388Z,20.99
2019-03-30T11:21:36.385Z,20.99
2019-03-30T11:22:36.408Z,21.04
2019-03-30T11:23:36.352Z,21.04
2019-03-30T11:24:36.363Z,21.16
2019-03-30T11:25:36.328Z,21.27
2019-03-30T11:26:36.322Z,21.31
2019-03-30T11:27:36.326Z,21.38
2019-03-30T11:28:36.294Z,21.52
2019-03-30T11:29:36.294Z,21.43
2019-03-30T11:30:36.286Z,21.44
2019-03-30T11:31:36.257Z,21.44
2019-03-30T11:32:36.248Z,21.49
2019-03-30T11:33:36.244Z,21.52
2019-03-30T11:34:36.249Z,21.62
2019-03-30T11:35:36.219Z,21.74
2019-03-30T11:36:36.218Z,21.80
2019-03-30T11:37:36.193Z,21.82
2019-03-30T11:38:36.190Z,21.94
2019-03-30T11:39:36.191Z,21.91
2019-03-30T11:40:36.188Z,21.98
2019-03-30T11:41:36.150Z,22.03
2019-03-30T11:42:36.146Z,22.07
2019-03-30T11:43:36.133Z,22.20
2019-03-30T11:44:36.124Z,22.18
2019-03-30T11:45:36.135Z,22.35
2019-03-30T11:46:36.111Z,22.27
2019-03-30T11:47:36.087Z,22.39
2019-03-30T11:48:37.687Z,22.40
2019-03-30T11:49:36.064Z,22.39
2019-03-30T11:50:36.067Z,22.43
2019-03-30T11:51:36.065Z,22.22
2019-03-30T11:52:36.045Z,22.00
2019-03-30T11:53:36.026Z,21.92
2019-03-30T11:54:36.023Z,21.90
2019-03-30T11:55:36.031Z,21.79
2019-03-30T11:56:36.049Z,21.92
2019-03-30T11:57:36.057Z,21.91
2019-03-30T11:58:35.963Z,21.92
2019-03-30T11:59:35.972Z,21.79
2019-03-30T12:00:35.959Z,21.88
2019-03-30T12:01:35.938Z,21.96
2019-03-30T12:02:35.926Z,22.10
2019-03-30T12:03:35.910Z,22.17
2019-03-30T12:04:35.902Z,22.17
2019-03-30T12:05:35.939Z,22.27
2019-03-30T12:06:35.893Z,22.37
2019-03-30T12:07:35.870Z,22.45
2019-03-30T12:08:35.872Z,22.54
2019-03-30T12:09:35.873Z,22.60
2019-03-30T12:10:35.837Z,22.68
2019-03-30T12:11:35.864Z,22.76
2019-03-30T12:12:37.544Z,22.75
2019-03-30T12:13:35.810Z,22.85
2019-03-30T12:14:35.814Z,22.79
2019-03-30T12:15:35.787Z,22.73
2019-03-30T12:16:35.825Z,22.72
2019-03-30T12:17:35.761Z,22.82
2019-03-30T12:18:35.762Z,22.65
2019-03-30T12:19:35.747Z,22.60
2019-03-30T12:20:35.729Z,22.55
2019-03-30T12:21:35.739Z,22.55
2019-03-30T12:22:35.707Z,22.58
2019-03-30T12:23:35.763Z,22.51
2019-03-30T12:24:35.700Z,22.51
2019-03-30T12:25:36.308Z,22.62
2019-03-30T12:26:35.666Z,22.58
2019-03-30T12:27:35.670Z,22.54
2019-03-30T12:28:35.641Z,22.49
2019-03-30T12:29:35.632Z,22.60
2019-03-30T12:30:35.630Z,22.70
2019-03-30T12:31:35.636Z,22.80
2019-03-30T12:32:35.621Z,22.68
2019-03-30T12:33:35.584Z,22.57
2019-03-30T12:34:35.586Z,22.49
2019-03-30T12:35:35.573Z,22.40
2019-03-30T12:36:35.586Z,22.35
2019-03-30T12:37:35.596Z,22.36
2019-03-30T12:38:35.538Z,22.15
2019-03-30T12:39:35.526Z,22.14
2019-03-30T12:40:35.510Z,22.09
2019-03-30T12:41:35.516Z,22.05
2019-03-30T12:42:35.519Z,22.09
2019-03-30T12:43:38.788Z,22.09
2019-03-30T12:44:35.482Z,22.17
2019-03-30T12:45:35.455Z,22.28
2019-03-30T12:46:35.461Z,22.37
2019-03-30T12:47:35.437Z,22.51
2019-03-30T12:48:35.548Z,22.57
2019-03-30T12:49:35.477Z,22.67
2019-03-30T12:50:35.401Z,22.68
2019-03-30T12:51:35.398Z,22.77
2019-03-30T12:52:35.415Z,22.79
2019-03-30T12:53:49.231Z,22.79
2019-03-30T12:54:36.358Z,22.86
2019-03-30T12:55:48.348Z,22.90
2019-03-30T12:56:36.375Z,23.04
2019-03-30T12:57:35.321Z,23.05
2019-03-30T12:58:35.336Z,23.22
2019-03-30T12:59:35.309Z,23.39
2019-03-30T13:00:35.293Z,23.51
2019-03-30T13:01:35.294Z,23.54
2019-03-30T13:02:35.291Z,23.53
2019-03-30T13:03:35.288Z,23.60
2019-03-30T13:04:35.256Z,23.55
2019-03-30T13:05:35.240Z,23.66
2019-03-30T13:06:35.244Z,23.72